Time;durP1;ratioP1;P1;durP2;ratioP2;P2;SDS_P1;SDS_P2;PMS_P1;PMS_P2;Temp;Humidity;BMP_temperature;BMP_pressure;BME280_temperature;BME280_humidity;BME280_pressure;Samples;Min_cycle;Max_cycle;Signal;HPM_P1;HPM_P2
2022/08/04 00:01:16;;;;;;;11.80;10.20;;;;;;;19.25;71.74;98631.61;106321;1277;23233;-80
2022/08/04 00:03:54;;;;;;;11.50;9.80;;;;;;;19.20;71.94;98633.12;106359;1274;137984;-80
2022/08/04 00:06:49;;;;;;;12.10;9.80;;;;;;;19.17;72.02;98634.27;106273;1274;22552;-80
2022/08/04 00:09:47;;;;;;;10.80;9.70;;;;;;;19.15;72.05;98633.08;106327;1274;22792;-80
2022/08/04 00:12:16;;;;;;;10.30;9.30;;;;;;;19.15;72.50;98632.64;106834;1277;24257;-80
2022/08/04 00:14:50;;;;;;;10.30;9.30;;;;;;;19.12;72.57;98630.87;106317;1277;24222;-80
2022/08/04 00:17:25;;;;;;;12.60;9.80;;;;;;;19.10;72.83;98634.59;106266;1277;138320;-80
2022/08/04 00:19:58;;;;;;;10.80;9.70;;;;;;;19.06;72.83;98627.63;106531;1277;22757;-80
2022/08/04 00:22:30;;;;;;;10.50;9.40;;;;;;;19.04;73.02;98629.02;106347;1278;138307;-80
2022/08/04 00:25:02;;;;;;;10.40;9.40;;;;;;;19.04;72.98;98629.14;106337;1274;23902;-80
2022/08/04 00:27:30;;;;;;;11.40;9.60;;;;;;;19.05;73.19;98631.11;106383;1274;24459;-80
2022/08/04 00:29:58;;;;;;;12.40;9.40;;;;;;;19.04;73.22;98628.64;106727;1274;24300;-80
2022/08/04 00:32:25;;;;;;;9.60;8.60;;;;;;;19.03;73.19;98628.23;106477;1277;22600;-80
2022/08/04 00:34:54;;;;;;;9.90;8.80;;;;;;;19.04;73.45;98627.88;106145;1277;137988;-80
2022/08/04 00:37:22;;;;;;;10.30;9.20;;;;;;;19.04;73.42;98627.66;106610;1277;26156;-79
2022/08/04 00:39:50;;;;;;;10.10;9.10;;;;;;;19.03;73.44;98628.55;106305;1277;138455;-80
2022/08/04 00:42:17;;;;;;;10.20;8.70;;;;;;;19.01;73.50;98627.58;107131;1274;22996;-80
2022/08/04 00:44:44;;;;;;;11.20;9.70;;;;;;;19.00;73.51;98630.30;106572;1274;22664;-80
2022/08/04 00:47:18;;;;;;;11.20;9.30;;;;;;;19.00;73.63;98629.14;106561;1274;138422;-80
2022/08/04 00:50:02;;;;;;;10.00;9.00;;;;;;;18.97;73.58;98628.05;106755;1275;25148;-80
2022/08/04 00:52:36;;;;;;;13.00;9.10;;;;;;;18.95;73.61;98628.03;106387;1274;138617;-80
2022/08/04 00:55:41;;;;;;;10.60;9.60;;;;;;;18.91;73.72;98634.16;106580;1276;22729;-79
2022/08/04 00:58:28;;;;;;;10.20;9.00;;;;;;;18.88;73.90;98635.64;106103;1277;138876;-81
2022/08/04 01:01:04;;;;;;;11.50;9.10;;;;;;;18.87;73.99;98636.53;106633;1277;22618;-81
2022/08/04 01:03:54;;;;;;;9.90;8.50;;;;;;;18.86;73.97;98635.73;106353;1274;138613;-82
2022/08/04 01:07:09;;;;;;;9.80;8.50;;;;;;;18.84;74.05;98636.41;106534;1274;22586;-79
2022/08/04 01:10:11;;;;;;;11.50;9.80;;;;;;;18.80;74.19;98635.77;106043;1283;137758;-80
2022/08/04 01:12:41;;;;;;;9.60;8.70;;;;;;;18.76;74.31;98633.77;105727;1286;22551;-79
2022/08/04 01:15:32;;;;;;;11.30;9.30;;;;;;;18.72;74.48;98634.14;105326;1289;22549;-79
2022/08/04 01:18:07;;;;;;;11.10;9.60;;;;;;;18.67;74.34;98632.52;105545;1286;25252;-82
2022/08/04 01:21:05;;;;;;;10.20;9.00;;;;;;;18.60;73.96;98635.22;105713;1286;24276;-79
2022/08/04 01:23:50;;;;;;;11.30;9.60;;;;;;;18.49;73.93;98635.46;104773;1295;137922;-79
2022/08/04 01:26:40;;;;;;;11.30;9.80;;;;;;;18.44;74.16;98638.66;104765;1293;26763;-82
2022/08/04 01:29:08;;;;;;;10.40;9.30;;;;;;;18.39;74.61;98639.25;104892;1293;138011;-79
2022/08/04 01:31:50;;;;;;;11.30;9.60;;;;;;;18.37;74.72;98635.48;104459;1294;24289;-81
2022/08/04 01:34:19;;;;;;;11.10;9.80;;;;;;;18.35;74.73;98638.87;104919;1294;138109;-79
2022/08/04 01:37:17;;;;;;;10.30;9.40;;;;;;;18.28;74.45;98639.16;104698;1293;24401;-81
2022/08/04 01:40:04;;;;;;;13.70;9.70;;;;;;;18.17;74.17;98638.05;104286;1298;138644;-80
2022/08/04 01:42:34;;;;;;;10.90;9.60;;;;;;;18.04;74.41;98640.98;104541;1298;25325;-79
2022/08/04 01:45:05;;;;;;;10.40;9.40;;;;;;;17.95;74.93;98635.99;104464;1298;22862;-79
2022/08/04 01:47:39;;;;;;;11.20;9.50;;;;;;;17.90;75.27;98637.48;105235;1294;138537;-80
2022/08/04 01:50:12;;;;;;;10.70;9.10;;;;;;;17.83;75.35;98635.30;105431;1287;24491;-79
2022/08/04 01:52:42;;;;;;;10.10;9.10;;;;;;;17.82;75.65;98634.20;105372;1287;138247;-80
2022/08/04 01:55:11;;;;;;;11.00;9.80;;;;;;;17.83;75.90;98634.98;105782;1289;26553;-80
2022/08/04 01:57:44;;;;;;;10.90;9.30;;;;;;;17.84;76.13;98640.08;105735;1289;139246;-81
2022/08/04 02:00:26;;;;;;;10.90;9.90;;;;;;;17.86;76.38;98636.23;105376;1289;22594;-80
2022/08/04 02:02:54;;;;;;;10.90;9.20;;;;;;;17.89;76.28;98633.63;105826;1284;22582;-80
2022/08/04 02:05:24;;;;;;;10.20;9.10;;;;;;;17.90;76.39;98633.23;105966;1283;138088;-79
2022/08/04 02:08:12;;;;;;;14.00;9.90;;;;;;;17.90;76.61;98630.59;106013;1283;25417;-79
2022/08/04 02:10:42;;;;;;;12.10;10.10;;;;;;;17.86;76.21;98630.61;106241;1283;138517;-79
2022/08/04 02:13:47;;;;;;;10.80;9.70;;;;;;;17.76;75.82;98628.02;106355;1283;22624;-79
2022/08/04 02:16:32;;;;;;;11.60;9.10;;;;;;;17.70;76.10;98627.14;105664;1278;138575;-79
2022/08/04 02:19:02;;;;;;;10.20;9.00;;;;;;;17.68;76.38;98624.13;106286;1278;25249;-80
2022/08/04 02:21:31;;;;;;;10.40;9.30;;;;;;;17.69;76.65;98623.02;106398;1277;24367;-80
2022/08/04 02:24:12;;;;;;;9.90;8.30;;;;;;;17.70;76.87;98621.96;106553;1277;25561;-80
2022/08/04 02:26:42;;;;;;;10.60;9.40;;;;;;;17.70;76.81;98622.41;106747;1278;31486;-79
2022/08/04 02:29:24;;;;;;;10.30;9.30;;;;;;;17.66;76.54;98616.55;106733;1276;137749;-80
2022/08/04 02:32:01;;;;;;;11.00;9.40;;;;;;;17.65;76.64;98617.59;106518;1277;24223;-81
2022/08/04 02:34:56;;;;;;;11.30;9.20;;;;;;;17.66;76.57;98625.41;106410;1275;137573;-80
2022/08/04 02:37:25;;;;;;;9.40;8.40;;;;;;;17.66;76.37;98625.02;106689;1277;31775;-80
2022/08/04 02:39:53;;;;;;;;;;;;;;;17.63;76.36;98620.64;106592;1277;138194;-80
2022/08/04 02:42:20;;;;;;;10.50;9.40;;;;;;;17.58;76.21;98618.90;106799;1277;25304;-81
2022/08/04 02:44:51;;;;;;;10.00;9.00;;;;;;;17.53;76.31;98621.39;106505;1277;22545;-80
2022/08/04 02:47:22;;;;;;;10.50;9.40;;;;;;;17.49;76.62;98618.05;106806;1276;137364;-80
2022/08/04 02:49:50;;;;;;;10.90;9.80;;;;;;;17.45;76.70;98614.42;106547;1277;25350;-80
2022/08/04 02:52:18;;;;;;;11.20;10.10;;;;;;;17.44;76.93;98614.33;106483;1277;137487;-80
2022/08/04 02:54:48;;;;;;;11.30;9.50;;;;;;;17.44;77.09;98614.06;106598;1278;22550;-80
2022/08/04 02:57:17;;;;;;;9.50;8.50;;;;;;;17.42;77.02;98614.90;106885;1277;22547;-80
2022/08/04 03:00:05;;;;;;;10.30;9.30;;;;;;;17.39;77.06;98611.39;106307;1277;137741;-80
2022/08/04 03:03:08;;;;;;;10.70;9.10;;;;;;;17.38;77.29;98613.23;106752;1277;22553;-80
2022/08/04 03:05:35;;;;;;;11.10;10.00;;;;;;;17.38;77.50;98611.08;106323;1283;137662;-80
2022/08/04 03:08:47;;;;;;;11.60;9.60;;;;;;;17.37;77.64;98610.48;106285;1283;22560;-80
2022/08/04 03:11:45;;;;;;;12.10;8.70;;;;;;;17.37;77.48;98606.20;105464;1287;138707;-80
2022/08/04 03:14:23;;;;;;;9.50;8.60;;;;;;;17.36;77.63;98607.45;105918;1287;22559;-80
2022/08/04 03:17:31;;;;;;;11.40;9.70;;;;;;;17.35;77.84;98609.98;105577;1287;137671;-80
2022/08/04 03:20:10;;;;;;;12.40;10.50;;;;;;;17.33;77.85;98614.74;105716;1287;24387;-80
2022/08/04 03:23:16;;;;;;;12.00;10.60;;;;;;;17.30;78.00;98616.97;105619;1287;137777;-82
2022/08/04 03:25:56;;;;;;;13.20;9.60;;;;;;;17.30;78.01;98619.94;105808;1285;22562;-80
2022/08/04 03:28:42;;;;;;;12.20;10.00;;;;;;;17.28;78.10;98621.16;105765;1286;138678;-80
2022/08/04 03:31:18;;;;;;;14.10;10.10;;;;;;;17.26;78.11;98622.93;105743;1287;22625;-80
2022/08/04 03:34:03;;;;;;;12.40;10.60;;;;;;;17.25;78.29;98622.23;105539;1287;137783;-80
2022/08/04 03:36:39;;;;;;;11.70;10.30;;;;;;;17.23;78.42;98622.08;105533;1287;22821;-79
2022/08/04 03:39:25;;;;;;;11.30;9.90;;;;;;;17.21;78.30;98624.23;105691;1287;25488;-79
2022/08/04 03:42:44;;;;;;;14.20;9.60;;;;;;;17.21;78.59;98621.64;105868;1287;138563;-80
2022/08/04 03:45:16;;;;;;;19.00;13.80;;;;;;;17.23;78.83;98624.06;105377;1289;22671;-80
2022/08/04 03:47:52;;;;;;;13.40;11.60;;;;;;;17.24;78.85;98625.20;105375;1284;138399;-79
2022/08/04 03:50:28;;;;;;;14.80;12.30;;;;;;;17.25;78.86;98625.96;106058;1283;22667;-79
2022/08/04 03:53:13;;;;;;;15.20;11.80;;;;;;;17.26;79.01;98626.45;106014;1284;137829;-79
2022/08/04 03:55:46;;;;;;;16.00;11.10;;;;;;;17.26;79.05;98626.83;106193;1283;22574;-79
2022/08/04 03:58:39;;;;;;;16.50;10.10;;;;;;;17.26;79.14;98628.88;106283;1282;138673;-81
2022/08/04 04:01:42;;;;;;;12.10;10.10;;;;;;;17.25;79.37;98626.02;106175;1283;24700;-79
2022/08/04 04:04:11;;;;;;;11.90;10.70;;;;;;;17.28;79.29;98628.20;105908;1284;138758;-81
2022/08/04 04:06:54;;;;;;;14.50;10.80;;;;;;;17.31;79.44;98625.70;106329;1284;22686;-79
2022/08/04 04:09:30;;;;;;;11.60;10.50;;;;;;;17.33;79.62;98623.54;106333;1282;30256;-80
2022/08/04 04:12:35;;;;;;;13.50;10.40;;;;;;;17.35;79.76;98627.29;106328;1283;22688;-79
2022/08/04 04:15:13;;;;;;;13.50;10.60;;;;;;;17.39;79.64;98623.89;106090;1283;22907;-79
2022/08/04 04:18:15;;;;;;;11.10;9.40;;;;;;;17.45;79.66;98627.55;105579;1284;139260;-79
2022/08/04 04:20:59;;;;;;;12.10;10.40;;;;;;;17.39;79.09;98625.22;106661;1278;22609;-80
2022/08/04 04:23:51;;;;;;;18.90;11.40;;;;;;;17.32;79.23;98627.75;106555;1276;138047;-79
2022/08/04 04:26:36;;;;;;;12.30;10.00;;;;;;;17.26;79.78;98627.50;106518;1277;25249;-79
2022/08/04 04:29:06;;;;;;;11.20;9.10;;;;;;;17.28;79.78;98628.70;106752;1277;138435;-79
2022/08/04 04:31:52;;;;;;;15.30;10.40;;;;;;;17.30;79.99;98632.33;106511;1277;22614;-79
2022/08/04 04:34:43;;;;;;;15.40;10.70;;;;;;;17.32;80.06;98635.96;106506;1277;138300;-80
2022/08/04 04:37:22;;;;;;;16.60;10.90;;;;;;;17.34;80.33;98640.06;106362;1277;22560;-80
2022/08/04 04:40:10;;;;;;;13.40;10.70;;;;;;;17.38;80.44;98642.52;106437;1277;138721;-79
2022/08/04 04:42:41;;;;;;;14.40;12.60;;;;;;;17.44;80.49;98639.27;106560;1277;25934;-79
2022/08/04 04:45:22;;;;;;;14.40;11.60;;;;;;;17.51;80.66;98641.05;106380;1277;22563;-79
2022/08/04 04:47:59;;;;;;;11.80;10.60;;;;;;;17.58;80.60;98641.66;106416;1277;138286;-79
2022/08/04 04:51:07;;;;;;;13.90;10.80;;;;;;;17.67;80.58;98645.23;106455;1277;31718;-79
2022/08/04 04:54:01;;;;;;;14.20;10.40;;;;;;;17.78;80.49;98646.96;105934;1284;138441;-79
2022/08/04 04:56:59;;;;;;;11.30;10.20;;;;;;;17.89;80.49;98645.20;106313;1283;23433;-79
2022/08/04 04:59:32;;;;;;;11.50;10.40;;;;;;;18.00;80.29;98643.35;106027;1283;138965;-79
2022/08/04 05:02:40;;;;;;;12.30;10.00;;;;;;;18.08;80.37;98645.40;106533;1283;22479;-79
2022/08/04 05:05:36;;;;;;;11.20;10.10;;;;;;;18.19;80.13;98646.48;106195;1283;139016;-79
2022/08/04 05:08:18;;;;;;;10.60;9.50;;;;;;;18.28;79.76;98649.91;105601;1283;24319;-79
2022/08/04 05:11:15;;;;;;;11.70;9.80;;;;;;;18.37;79.77;98649.21;105257;1284;138128;-79
2022/08/04 05:13:52;;;;;;;17.50;10.60;;;;;;;18.45;79.57;98647.70;105854;1283;25483;-79
2022/08/04 05:16:26;;;;;;;11.30;10.00;;;;;;;18.50;79.40;98647.03;105551;1283;138599;-79
2022/08/04 05:19:27;;;;;;;12.90;10.00;;;;;;;18.56;79.17;98651.16;105841;1283;25323;-79
2022/08/04 05:22:07;;;;;;;11.00;9.70;;;;;;;18.64;79.04;98653.27;105833;1283;139098;-79
2022/08/04 05:24:41;;;;;;;10.40;9.30;;;;;;;18.71;78.77;98656.58;106091;1283;22567;-79
2022/08/04 05:27:15;;;;;;;14.40;10.50;;;;;;;18.77;78.52;98658.91;105903;1277;22546;-79
2022/08/04 05:30:04;;;;;;;12.80;10.50;;;;;;;18.84;78.38;98659.70;106040;1277;138482;-77
2022/08/04 05:32:48;;;;;;;11.60;9.80;;;;;;;18.90;78.29;98658.36;105939;1277;24153;-78
2022/08/04 05:35:30;;;;;;;11.00;9.80;;;;;;;18.96;78.07;98658.00;106264;1277;138123;-77
2022/08/04 05:37:59;;;;;;;11.90;10.40;;;;;;;19.02;78.08;98660.08;106569;1275;23062;-77
2022/08/04 05:40:26;;;;;;;11.50;9.80;;;;;;;19.09;77.89;98661.31;107997;1277;138325;-80
2022/08/04 05:42:55;;;;;;;10.70;9.60;;;;;;;19.17;77.94;98662.91;106149;1277;22677;-80
2022/08/04 05:45:24;;;;;;;11.10;10.00;;;;;;;19.24;77.67;98663.82;106301;1277;24252;-80
2022/08/04 05:47:52;;;;;;;10.50;9.60;;;;;;;19.31;77.51;98669.73;105991;1278;138299;-78
2022/08/04 05:50:21;;;;;;;12.60;9.40;;;;;;;19.38;77.45;98663.36;106332;1278;22712;-79
2022/08/04 05:52:49;;;;;;;;;;;;;;;19.45;77.13;98670.32;106060;1277;138187;-78
2022/08/04 05:55:17;;;;;;;10.70;9.70;;;;;;;19.51;76.94;98669.62;106723;1277;22548;-79
2022/08/04 05:57:47;;;;;;;11.20;8.80;;;;;;;19.58;76.51;98672.02;106619;1277;138590;-79
2022/08/04 06:00:16;;;;;;;10.30;8.70;;;;;;;19.65;76.54;98672.36;106167;1277;22626;-79
2022/08/04 06:02:48;;;;;;;9.40;8.40;;;;;;;19.70;76.12;98672.77;106878;1277;22548;-80
2022/08/04 06:05:17;;;;;;;10.50;8.70;;;;;;;19.77;75.79;98670.98;106612;1276;138167;-79
2022/08/04 06:07:47;;;;;;;9.30;8.40;;;;;;;19.85;75.55;98665.83;106351;1277;22563;-79
2022/08/04 06:10:15;;;;;;;9.70;8.10;;;;;;;19.93;75.55;98668.34;106362;1277;305933;-79
2022/08/04 06:12:51;;;;;;;9.00;7.60;;;;;;;20.01;75.17;98675.13;106759;1277;24301;-81
2022/08/04 06:15:21;;;;;;;8.90;7.90;;;;;;;20.09;74.65;98677.38;106712;1277;22633;-78
2022/08/04 06:17:52;;;;;;;10.40;8.20;;;;;;;20.17;74.47;98679.45;106476;1277;138012;-79
2022/08/04 06:20:20;;;;;;;9.70;8.60;;;;;;;20.28;74.11;98683.64;108392;1277;22567;-79
2022/08/04 06:22:56;;;;;;;;;;;;;;;20.39;74.05;98683.33;106509;1277;138448;-79
2022/08/04 06:25:28;;;;;;;8.80;7.30;;;;;;;20.48;73.31;98683.59;106596;1277;22550;-80
2022/08/04 06:27:57;;;;;;;12.40;7.20;;;;;;;20.57;72.95;98684.54;107021;1277;137882;-80
2022/08/04 06:30:27;;;;;;;9.50;7.80;;;;;;;20.65;72.59;98684.19;106746;1277;22569;-79
2022/08/04 06:32:59;;;;;;;9.20;8.10;;;;;;;20.72;72.20;98682.40;106880;1276;23274;-80
2022/08/04 06:35:29;;;;;;;10.00;7.30;;;;;;;20.81;72.06;98682.19;108169;1277;137322;-81
2022/08/04 06:37:57;;;;;;;12.30;8.00;;;;;;;20.89;72.22;98682.24;106638;1277;25071;-81
2022/08/04 06:40:26;;;;;;;11.80;7.70;;;;;;;20.96;72.16;98679.06;106646;1277;139012;-81
2022/08/04 06:42:54;;;;;;;11.00;7.70;;;;;;;21.05;71.86;98682.03;106710;1277;22539;-80
2022/08/04 06:45:23;;;;;;;9.20;7.30;;;;;;;21.14;71.17;98681.02;106476;1277;22668;-81
2022/08/04 06:47:50;;;;;;;8.70;7.70;;;;;;;21.21;70.66;98680.90;106573;1277;138084;-80
2022/08/04 06:50:19;;;;;;;8.60;6.80;;;;;;;21.30;70.50;98680.11;106635;1277;22547;-80
2022/08/04 06:52:46;;;;;;;12.40;7.50;;;;;;;21.37;69.91;98677.61;106395;1277;137740;-79
2022/08/04 06:55:13;;;;;;;8.70;7.60;;;;;;;21.46;69.72;98675.89;106390;1277;22666;-80
2022/08/04 06:57:42;;;;;;;9.00;7.40;;;;;;;21.54;69.69;98677.17;106346;1277;137463;-80
2022/08/04 07:00:15;;;;;;;11.50;7.80;;;;;;;21.62;69.64;98677.27;106700;1277;22554;-80
2022/08/04 07:02:49;;;;;;;7.50;6.70;;;;;;;21.71;69.95;98672.49;106172;1277;24263;-79
2022/08/04 07:05:18;;;;;;;7.70;6.20;;;;;;;21.80;69.50;98671.63;106471;1277;138151;-79
2022/08/04 07:07:46;;;;;;;10.20;6.40;;;;;;;21.89;68.73;98672.09;106366;1277;23644;-80
2022/08/04 07:10:14;;;;;;;7.70;5.80;;;;;;;21.97;67.65;98670.42;106372;1277;138515;-79
2022/08/04 07:12:42;;;;;;;9.10;6.10;;;;;;;22.06;67.11;98668.95;108941;1277;26495;-80
2022/08/04 07:15:10;;;;;;;8.20;5.80;;;;;;;22.15;65.78;98666.01;106705;1277;22595;-80
2022/08/04 07:17:39;;;;;;;10.80;5.70;;;;;;;22.24;65.34;98667.98;106417;1274;137232;-81
2022/08/04 07:20:07;;;;;;;9.80;6.30;;;;;;;22.34;65.24;98666.70;106913;1274;24387;-80
2022/08/04 07:22:35;;;;;;;10.00;6.30;;;;;;;22.44;65.29;98674.36;106031;1277;137263;-78
2022/08/04 07:25:07;;;;;;;9.50;6.70;;;;;;;22.54;65.05;98671.66;106259;1277;22560;-78
2022/08/04 07:27:35;;;;;;;10.90;6.20;;;;;;;22.63;64.71;98671.31;105891;1277;137465;-77
2022/08/04 07:30:05;;;;;;;8.30;6.10;;;;;;;22.73;64.29;98671.65;107324;1277;22647;-80
2022/08/04 07:32:32;;;;;;;8.40;5.60;;;;;;;22.83;63.20;98673.50;106595;1277;22576;-78
2022/08/04 07:34:59;;;;;;;7.80;5.50;;;;;;;22.91;62.70;98671.08;106713;1277;137475;-78
2022/08/04 07:37:26;;;;;;;11.60;5.80;;;;;;;23.02;62.20;98671.56;106690;1275;22755;-79
2022/08/04 07:39:53;;;;;;;8.00;5.80;;;;;;;23.12;61.84;98669.95;107171;1277;137713;-79
2022/08/04 07:42:20;;;;;;;10.40;6.30;;;;;;;23.22;61.95;98670.05;107077;1274;22573;-79
2022/08/04 07:44:47;;;;;;;10.30;5.80;;;;;;;23.33;61.90;98667.67;106590;1274;22566;-79
2022/08/04 07:47:14;;;;;;;7.50;4.80;;;;;;;23.43;61.72;98670.25;106411;1274;138156;-78
2022/08/04 07:49:42;;;;;;;9.30;4.90;;;;;;;23.54;59.84;98670.35;106514;1274;25236;-79
2022/08/04 07:52:09;;;;;;;10.70;5.10;;;;;;;23.65;59.07;98667.39;106432;1274;137611;-79
2022/08/04 07:54:38;;;;;;;8.00;4.80;;;;;;;23.77;57.96;98670.14;106416;1277;22638;-78
2022/08/04 07:57:05;;;;;;;;;;;;;;;23.89;57.41;98669.05;107449;1275;25273;-79
2022/08/04 07:59:32;;;;;;;9.70;4.50;;;;;;;24.00;56.57;98667.08;106361;1277;124239;-79
2022/08/04 08:02:00;;;;;;;7.40;4.80;;;;;;;24.13;56.65;98665.58;106366;1277;22541;-83
2022/08/04 08:04:28;;;;;;;9.60;4.20;;;;;;;24.27;56.70;98665.16;107099;1274;137591;-79
2022/08/04 08:06:58;;;;;;;4.60;3.70;;;;;;;24.41;55.30;98664.73;106489;1274;24544;-82
2022/08/04 08:09:25;;;;;;;7.50;4.50;;;;;;;24.54;54.32;98665.20;106287;1274;24183;-78
2022/08/04 08:11:53;;;;;;;8.50;3.80;;;;;;;24.68;54.38;98666.38;107442;1274;137315;-78
2022/08/04 08:14:21;;;;;;;5.50;3.80;;;;;;;24.84;53.50;98669.78;106227;1274;25304;-79
2022/08/04 08:16:49;;;;;;;7.90;4.00;;;;;;;24.96;53.31;98670.31;106241;1277;137779;-78
2022/08/04 08:19:15;;;;;;;5.20;3.90;;;;;;;25.09;52.58;98666.67;106041;1277;25218;-77
2022/08/04 08:21:47;;;;;;;4.70;3.10;;;;;;;25.20;52.78;98662.69;106573;1277;137367;-77
2022/08/04 08:24:15;;;;;;;7.30;3.50;;;;;;;25.34;52.51;98661.09;106491;1274;22615;-77
2022/08/04 08:26:43;;;;;;;4.10;3.50;;;;;;;25.46;52.05;98659.09;106389;1274;25194;-78
2022/08/04 08:29:11;;;;;;;7.90;3.30;;;;;;;25.56;51.20;98661.55;106340;1274;137426;-79
2022/08/04 08:31:38;;;;;;;6.00;3.60;;;;;;;25.65;50.82;98662.92;106611;1274;22550;-79
2022/08/04 08:34:05;;;;;;;4.40;3.40;;;;;;;25.75;50.16;98659.00;106732;1274;137977;-79
2022/08/04 08:36:45;;;;;;;4.90;3.50;;;;;;;25.85;49.87;98657.84;106312;1276;22623;-78
2022/08/04 08:39:27;;;;;;;6.90;3.70;;;;;;;25.94;49.57;98662.89;106363;1277;22698;-78
2022/08/04 08:42:22;;;;;;;7.50;4.00;;;;;;;26.05;49.17;98662.02;106084;1277;137599;-78
2022/08/04 08:45:20;;;;;;;6.00;3.80;;;;;;;26.15;48.60;98663.30;106291;1274;22554;-79
2022/08/04 08:48:11;;;;;;;8.40;3.70;;;;;;;26.24;47.80;98660.64;106193;1274;137137;-79
2022/08/04 08:50:38;;;;;;;4.70;3.50;;;;;;;26.32;47.35;98663.17;106189;1274;22555;-79
2022/08/04 08:53:26;;;;;;;7.00;3.70;;;;;;;26.39;47.40;98659.03;106087;1274;137521;-80
2022/08/04 08:56:12;;;;;;;4.00;3.60;;;;;;;26.48;47.48;98664.06;106379;1276;23566;-79
2022/08/04 08:58:54;;;;;;;3.50;3.20;;;;;;;26.58;47.11;98660.92;106110;1276;137397;-79
2022/08/04 09:01:30;;;;;;;6.30;3.40;;;;;;;26.67;46.79;98664.72;106011;1277;22541;-78
2022/08/04 09:04:29;;;;;;;8.80;3.60;;;;;;;26.79;47.07;98662.77;106647;1274;137598;-79
2022/08/04 09:07:05;;;;;;;5.90;3.60;;;;;;;26.93;47.62;98668.28;105710;1283;25388;-79
2022/08/04 09:09:47;;;;;;;4.10;3.10;;;;;;;27.04;46.58;98667.31;106526;1282;137740;-79
2022/08/04 09:12:32;;;;;;;6.20;3.50;;;;;;;27.16;45.83;98665.73;105720;1283;24272;-77
2022/08/04 09:15:35;;;;;;;4.80;3.20;;;;;;;27.26;45.42;98664.57;106350;1282;22255;-77
2022/08/04 09:18:35;;;;;;;8.50;3.30;;;;;;;27.40;44.64;98658.95;106398;1282;23965;-78
2022/08/04 09:21:30;;;;;;;6.40;2.50;;;;;;;27.55;44.05;98661.08;107566;1282;23405;-78
2022/08/04 09:24:15;;;;;;;5.70;3.10;;;;;;;27.69;43.84;98655.24;106367;1282;22561;-79
2022/08/04 09:27:09;;;;;;;8.60;2.90;;;;;;;27.82;43.59;98661.09;105794;1282;23011;-78
2022/08/04 09:29:40;;;;;;;4.50;2.60;;;;;;;27.94;43.83;98657.94;105335;1289;137447;-79
2022/08/04 09:32:33;;;;;;;7.20;3.30;;;;;;;28.06;43.81;98656.83;104905;1289;22603;-78
2022/08/04 09:35:25;;;;;;;3.50;3.00;;;;;;;28.21;43.28;98660.11;107126;1289;137443;-81
2022/08/04 09:38:21;;;;;;;6.20;3.00;;;;;;;28.31;41.95;98663.27;105266;1289;23190;-81
2022/08/04 09:40:54;;;;;;;3.90;3.10;;;;;;;28.34;41.06;98659.27;105446;1289;137477;-83
2022/08/04 09:43:35;;;;;;;3.70;3.10;;;;;;;28.42;41.90;98665.56;105041;1286;22584;-83
2022/08/04 09:46:23;;;;;;;6.60;3.60;;;;;;;28.54;42.64;98658.23;105665;1284;138755;-81
2022/08/04 09:49:06;;;;;;;;;;;;;;;28.67;41.45;98652.95;105782;1284;25540;-83
2022/08/04 09:51:33;;;;;;;5.00;2.90;;;;;;;28.76;40.66;98654.70;105584;1284;124360;-82
2022/08/04 09:54:12;;;;;;;4.90;3.00;;;;;;;28.85;40.68;98654.87;105813;1284;22545;-89
2022/08/04 09:56:57;;;;;;;5.80;3.30;;;;;;;28.94;40.86;98651.41;107035;1284;30596;-90
2022/08/04 09:59:40;;;;;;;21.60;7.30;;;;;;;29.07;40.65;98653.30;105812;1284;137721;-88
2022/08/04 10:02:14;;;;;;;9.70;4.10;;;;;;;29.16;40.35;98650.33;105664;1284;22617;-91
2022/08/04 10:04:43;;;;;;;7.00;3.30;;;;;;;29.26;40.03;98644.58;105908;1284;137390;-88
2022/08/04 10:07:16;;;;;;;;;;;;;;;29.36;40.22;98642.22;106258;1277;22910;-86
2022/08/04 10:10:08;;;;;;;6.30;2.90;;;;;;;29.44;40.05;98647.55;106543;1277;123932;-86
2022/08/04 10:12:51;;;;;;;7.10;2.90;;;;;;;29.56;39.64;98642.02;106178;1277;24366;-83
2022/08/04 10:15:27;;;;;;;4.00;2.90;;;;;;;29.63;39.36;98637.13;106521;1276;25253;-93
2022/08/04 10:18:10;;;;;;;4.20;2.70;;;;;;;29.70;39.27;98637.92;107038;1277;137068;-91
2022/08/04 10:21:30;;;;;;;4.20;2.70;;;;;;;29.81;38.78;98637.77;107127;1277;22706;-92
2022/08/04 10:24:36;;;;;;;3.50;2.80;;;;;;;29.94;39.48;98635.40;107153;1277;23200;-88
2022/08/04 10:27:24;;;;;;;3.10;2.90;;;;;;;30.02;38.54;98634.27;106633;1278;22765;-88
2022/08/04 10:29:57;;;;;;;3.80;3.00;;;;;;;30.09;38.48;98632.65;106403;1277;137083;-86
2022/08/04 10:32:29;;;;;;;3.20;2.90;;;;;;;30.15;38.19;98625.92;106190;1279;22541;-86
2022/08/04 10:35:09;;;;;;;4.20;3.00;;;;;;;30.20;38.12;98624.59;106522;1276;137363;-91
2022/08/04 10:38:00;;;;;;;3.00;2.70;;;;;;;30.28;38.54;98623.27;106864;1277;31112;-86
2022/08/04 10:40:55;;;;;;;3.40;3.10;;;;;;;30.37;38.21;98619.95;106238;1277;137502;-86
2022/08/04 10:43:34;;;;;;;6.30;3.10;;;;;;;30.45;38.76;98623.77;107384;1277;22477;-90
2022/08/04 10:46:14;;;;;;;3.10;2.60;;;;;;;30.52;38.54;98623.65;107408;1277;136757;-94
2022/08/04 10:48:50;;;;;;;4.60;3.20;;;;;;;30.64;38.78;98624.35;107875;1277;22654;-90
2022/08/04 10:51:29;;;;;;;5.50;3.20;;;;;;;30.72;38.29;98623.29;106957;1277;22632;-88
2022/08/04 10:54:01;;;;;;;3.10;2.90;;;;;;;30.75;38.12;98620.03;106104;1276;137219;-87
2022/08/04 10:56:36;;;;;;;4.00;2.80;;;;;;;30.76;37.96;98622.38;106163;1276;22776;-86
2022/08/04 10:59:11;;;;;;;4.20;3.30;;;;;;;30.79;38.42;98620.27;106305;1277;137336;-93
2022/08/04 11:01:41;;;;;;;7.80;3.00;;;;;;;30.84;38.10;98623.15;106346;1277;22538;-85
2022/08/04 11:04:23;;;;;;;3.20;2.70;;;;;;;30.91;38.62;98623.60;106357;1277;137757;-87
2022/08/04 11:06:52;;;;;;;3.20;2.90;;;;;;;31.01;38.20;98620.39;107746;1276;22553;-86
2022/08/04 11:09:19;;;;;;;3.30;2.90;;;;;;;31.02;37.47;98621.77;107580;1276;23999;-86
2022/08/04 11:11:52;;;;;;;3.90;2.80;;;;;;;31.02;38.12;98623.86;106422;1278;138292;-82
2022/08/04 11:14:26;;;;;;;4.10;2.40;;;;;;;31.11;37.65;98621.59;107040;1276;22559;-87
2022/08/04 11:17:18;;;;;;;4.60;2.70;;;;;;;31.20;37.68;98619.48;106927;1276;139775;-86
2022/08/04 11:20:26;;;;;;;2.90;2.50;;;;;;;31.28;36.94;98619.52;106445;1277;24310;-84
2022/08/04 11:23:05;;;;;;;3.30;2.70;;;;;;;31.38;36.99;98619.57;106794;1277;137920;-88
2022/08/04 11:25:47;;;;;;;2.70;2.30;;;;;;;31.48;36.35;98620.11;106703;1277;25457;-85
2022/08/04 11:28:44;;;;;;;2.50;2.30;;;;;;;31.53;35.97;98617.72;106556;1276;137478;-87
2022/08/04 11:31:29;;;;;;;3.50;2.60;;;;;;;31.64;36.34;98618.02;106795;1276;22713;-85
2022/08/04 11:34:15;;;;;;;2.50;2.30;;;;;;;31.71;35.93;98616.41;106529;1276;137501;-85
2022/08/04 11:36:49;;;;;;;3.80;2.30;;;;;;;31.70;34.94;98618.73;106642;1277;23930;-86
2022/08/04 11:39:54;;;;;;;4.00;2.50;;;;;;;31.70;34.81;98620.66;106352;1277;23936;-92
2022/08/04 11:42:26;;;;;;;3.60;2.30;;;;;;;31.72;34.10;98623.58;106734;1277;22587;-87
2022/08/04 11:45:12;;;;;;;3.50;2.60;;;;;;;31.74;34.54;98618.88;107240;1277;22577;-89
2022/08/04 11:47:54;;;;;;;2.70;2.50;;;;;;;31.86;34.80;98616.91;106771;1276;139621;-88
2022/08/04 11:50:33;;;;;;;2.30;2.10;;;;;;;31.91;33.93;98612.40;106623;1276;24226;-84
2022/08/04 11:53:02;;;;;;;6.10;2.60;;;;;;;31.92;34.11;98615.54;107217;1274;137328;-90
2022/08/04 11:55:31;;;;;;;6.00;2.80;;;;;;;32.00;34.10;98611.52;107286;1277;23264;-89
2022/08/04 11:57:58;;;;;;;4.40;2.70;;;;;;;32.05;33.42;98615.73;106983;1277;137407;-87
2022/08/04 12:00:30;;;;;;;4.00;2.80;;;;;;;32.07;32.79;98613.65;107057;1277;23512;-89
2022/08/04 12:03:10;;;;;;;2.80;2.50;;;;;;;32.06;33.40;98607.77;106646;1277;22805;-86
2022/08/04 12:05:56;;;;;;;3.20;2.30;;;;;;;32.14;34.00;98612.69;106870;1277;23370;-86
2022/08/04 12:08:39;;;;;;;4.80;2.20;;;;;;;32.24;34.35;98608.19;106408;1277;22695;-93